createdAt,value
2022-12-31T00:04:48.941Z,185.56863
2022-12-31T00:09:49.902Z,188.44444
2022-12-31T00:14:50.798Z,188.44444
2022-12-31T00:19:51.755Z,189.41833
2022-12-31T00:24:52.797Z,188.44444
2022-12-31T00:29:53.732Z,186.51969
2022-12-31T00:34:54.898Z,186.51969
2022-12-31T00:39:55.852Z,185.56863
2022-12-31T00:44:56.752Z,186.51969
2022-12-31T00:49:57.823Z,185.56863
2022-12-31T00:54:58.750Z,186.51969
2022-12-31T00:59:59.662Z,185.56863
2022-12-31T01:05:00.615Z,186.51969
2022-12-31T01:10:01.557Z,184.625
2022-12-31T01:15:02.493Z,183.68872
2022-12-31T01:20:03.411Z,183.68872
2022-12-31T01:25:04.346Z,184.625
2022-12-31T01:30:05.286Z,183.68872
2022-12-31T01:35:06.206Z,182.75969
2022-12-31T01:40:07.140Z,180.92308
2022-12-31T01:45:08.156Z,180.92308
2022-12-31T01:50:09.106Z,180.92308
2022-12-31T01:55:10.097Z,180.92308
2022-12-31T02:00:11.006Z,180.01533
2022-12-31T02:05:11.937Z,178.22053
2022-12-31T02:10:12.865Z,178.22053
2022-12-31T02:15:13.779Z,178.22053
2022-12-31T02:20:14.699Z,178.22053
2022-12-31T02:25:15.634Z,178.22053
2022-12-31T02:30:16.583Z,176.45283
2022-12-31T02:35:17.529Z,177.33333
2022-12-31T02:40:18.470Z,174.71161
2022-12-31T02:45:19.403Z,175.57895
2022-12-31T02:50:20.344Z,177.33333
2022-12-31T02:55:21.578Z,178.22053
2022-12-31T03:00:22.966Z,177.33333
2022-12-31T03:05:23.971Z,177.33333
2022-12-31T03:10:24.954Z,177.33333
2022-12-31T03:15:25.857Z,177.33333
2022-12-31T03:20:26.833Z,178.22053
2022-12-31T03:25:27.747Z,178.22053
2022-12-31T03:30:28.641Z,176.45283
2022-12-31T03:35:29.550Z,176.45283
2022-12-31T03:40:30.490Z,177.33333
2022-12-31T03:45:31.512Z,178.22053
2022-12-31T03:50:32.486Z,177.33333
2022-12-31T03:55:33.447Z,177.33333
2022-12-31T04:00:34.376Z,176.45283
2022-12-31T04:05:35.347Z,178.22053
2022-12-31T04:10:36.444Z,179.1145
2022-12-31T04:15:37.410Z,176.45283
2022-12-31T04:20:38.340Z,174.71161
2022-12-31T04:25:39.272Z,175.57895
2022-12-31T04:30:40.238Z,176.45283
2022-12-31T04:35:41.274Z,175.57895
2022-12-31T04:40:42.211Z,175.57895
2022-12-31T04:45:43.207Z,176.45283
2022-12-31T04:50:44.177Z,177.33333
2022-12-31T04:55:45.102Z,177.33333
2022-12-31T05:00:46.053Z,177.33333
2022-12-31T05:05:47.015Z,175.57895
2022-12-31T05:10:47.938Z,176.45283
2022-12-31T05:15:48.879Z,174.71161
2022-12-31T05:20:49.831Z,174.71161
2022-12-31T05:25:50.788Z,175.57895
2022-12-31T05:30:51.831Z,176.45283
2022-12-31T05:35:52.798Z,176.45283
2022-12-31T05:40:53.805Z,173.85075
2022-12-31T05:45:54.823Z,171.30627
2022-12-31T05:50:55.792Z,173.85075
2022-12-31T05:55:56.709Z,172.14815
2022-12-31T06:00:57.674Z,169.64103
2022-12-31T06:05:58.655Z,168.81752
2022-12-31T06:10:59.625Z,169.64103
2022-12-31T06:16:00.628Z,168.81752
2022-12-31T06:21:01.698Z,170.47059
2022-12-31T06:26:02.679Z,170.47059
2022-12-31T06:31:03.854Z,170.47059
2022-12-31T06:36:04.811Z,170.47059
2022-12-31T06:41:05.719Z,172.14815
2022-12-31T06:46:06.690Z,173.85075
2022-12-31T06:51:11.874Z,172.99628
2022-12-31T06:56:16.084Z,174.71161
2022-12-31T07:01:17.190Z,172.14815
2022-12-31T07:06:18.298Z,171.30627
2022-12-31T07:11:19.236Z,174.71161
2022-12-31T07:16:20.456Z,173.85075
2022-12-31T07:21:21.590Z,174.71161
2022-12-31T07:26:22.983Z,172.99628
2022-12-31T07:31:24.131Z,174.71161
2022-12-31T07:36:25.047Z,174.71161
2022-12-31T07:41:25.965Z,177.33333
2022-12-31T07:46:27.052Z,176.45283
2022-12-31T07:51:28.039Z,175.57895
2022-12-31T07:56:28.986Z,177.33333
2022-12-31T08:01:30.002Z,175.57895
2022-12-31T08:06:30.913Z,175.57895
2022-12-31T08:11:31.840Z,175.57895
2022-12-31T08:16:33.024Z,173.85075
2022-12-31T08:21:35.180Z,176.45283
2022-12-31T08:26:36.215Z,174.71161
2022-12-31T08:31:37.340Z,174.71161
2022-12-31T08:36:38.284Z,175.57895
2022-12-31T08:41:42.609Z,173.85075
2022-12-31T08:46:44.177Z,174.71161
2022-12-31T08:51:45.154Z,174.71161
2022-12-31T08:56:50.313Z,174.71161
2022-12-31T09:01:51.879Z,172.99628
2022-12-31T09:06:52.878Z,172.14815
2022-12-31T09:11:53.861Z,171.30627
2022-12-31T09:16:55.017Z,172.14815
2022-12-31T09:21:55.962Z,171.30627
2022-12-31T09:26:56.982Z,171.30627
2022-12-31T09:31:57.994Z,169.64103
2022-12-31T09:36:58.996Z,170.47059
2022-12-31T09:42:00.025Z,172.14815
2022-12-31T09:47:01.115Z,169.64103
2022-12-31T09:52:02.123Z,168.81752
2022-12-31T09:57:03.045Z,169.64103
2022-12-31T10:02:04.190Z,169.64103
2022-12-31T10:07:05.232Z,171.30627
2022-12-31T10:12:06.209Z,171.30627
2022-12-31T10:17:07.182Z,172.14815
2022-12-31T10:22:08.137Z,169.64103
2022-12-31T10:27:09.084Z,171.30627
2022-12-31T10:32:10.016Z,171.30627
2022-12-31T10:37:10.955Z,172.14815
2022-12-31T10:42:11.895Z,170.47059
2022-12-31T10:47:12.827Z,168.81752
2022-12-31T10:52:13.913Z,168.81752
2022-12-31T10:57:14.875Z,168.81752
2022-12-31T11:02:16.176Z,169.64103
2022-12-31T11:07:17.326Z,172.14815
2022-12-31T11:12:18.257Z,168.0
2022-12-31T11:17:19.177Z,168.0
2022-12-31T11:22:20.169Z,167.18841
2022-12-31T11:27:21.108Z,169.64103
2022-12-31T11:32:22.339Z,168.81752
2022-12-31T11:37:23.626Z,168.0
2022-12-31T11:42:24.586Z,168.81752
2022-12-31T11:47:25.557Z,165.58273
2022-12-31T11:52:26.586Z,165.58273
2022-12-31T11:57:27.515Z,166.38267
2022-12-31T12:02:28.596Z,166.38267
2022-12-31T12:07:29.595Z,172.14815
2022-12-31T12:12:30.573Z,172.14815
2022-12-31T12:17:31.500Z,170.47059
2022-12-31T12:22:32.476Z,168.0
2022-12-31T12:27:34.438Z,168.0
2022-12-31T12:32:35.351Z,170.47059
2022-12-31T12:37:36.332Z,170.47059
2022-12-31T12:42:37.259Z,168.81752
2022-12-31T12:47:38.179Z,170.47059
2022-12-31T12:52:39.154Z,168.81752
2022-12-31T12:57:40.165Z,166.38267
2022-12-31T13:02:41.216Z,170.47059
2022-12-31T13:07:42.173Z,174.71161
2022-12-31T13:13:22.210Z,171.30627
2022-12-31T13:18:24.559Z,172.14815
2022-12-31T13:23:25.498Z,171.30627
2022-12-31T13:28:26.436Z,174.71161
2022-12-31T13:33:27.389Z,172.99628
2022-12-31T13:38:28.322Z,172.99628
2022-12-31T13:43:29.296Z,171.30627
2022-12-31T13:48:30.289Z,171.30627
2022-12-31T13:53:31.293Z,173.85075
2022-12-31T13:58:32.237Z,172.99628
2022-12-31T14:03:33.240Z,174.71161
2022-12-31T14:08:34.169Z,172.99628
2022-12-31T14:13:35.224Z,171.30627
2022-12-31T14:18:36.201Z,172.99628
2022-12-31T14:23:37.200Z,173.85075
2022-12-31T14:28:43.062Z,174.71161
2022-12-31T14:33:47.626Z,175.57895
2022-12-31T14:38:48.500Z,176.45283
2022-12-31T14:43:49.436Z,175.57895
2022-12-31T14:48:50.316Z,172.99628
2022-12-31T14:53:51.251Z,173.85075
2022-12-31T14:58:52.156Z,172.99628
2022-12-31T15:03:53.051Z,172.99628
2022-12-31T15:09:03.987Z,169.64103
2022-12-31T15:14:08.543Z,169.64103
2022-12-31T15:19:09.531Z,169.64103
2022-12-31T15:24:10.419Z,172.14815
2022-12-31T15:29:11.361Z,172.99628
2022-12-31T15:34:12.274Z,171.30627
2022-12-31T15:39:13.299Z,169.64103
2022-12-31T15:44:14.255Z,168.81752
2022-12-31T15:49:15.905Z,169.64103
2022-12-31T15:54:17.192Z,168.0
2022-12-31T15:59:18.104Z,169.64103
2022-12-31T16:04:19.050Z,168.81752
2022-12-31T16:09:19.978Z,168.0
2022-12-31T16:14:20.921Z,169.64103
2022-12-31T16:19:21.943Z,168.81752
2022-12-31T16:24:23.399Z,166.38267
2022-12-31T16:29:24.497Z,168.0
2022-12-31T16:34:25.436Z,168.81752
2022-12-31T16:39:26.345Z,169.64103
2022-12-31T16:44:27.268Z,170.47059
2022-12-31T16:49:28.225Z,171.30627
2022-12-31T16:54:29.197Z,171.30627
2022-12-31T16:59:34.989Z,170.47059
2022-12-31T17:04:39.996Z,172.99628
2022-12-31T17:09:46.159Z,172.99628
2022-12-31T17:14:47.138Z,174.71161
2022-12-31T17:19:48.095Z,175.57895
2022-12-31T17:24:49.040Z,173.85075
2022-12-31T17:29:49.978Z,173.85075
2022-12-31T17:34:50.880Z,173.85075
2022-12-31T17:39:51.923Z,175.57895
2022-12-31T17:44:52.863Z,175.57895
2022-12-31T17:49:53.877Z,176.45283
2022-12-31T17:54:54.877Z,175.57895
2022-12-31T17:59:55.801Z,175.57895
2022-12-31T18:04:56.821Z,174.71161
2022-12-31T18:09:58.041Z,175.57895
2022-12-31T18:14:59.006Z,173.85075
2022-12-31T18:20:06.390Z,176.45283
2022-12-31T18:25:07.615Z,175.57895
2022-12-31T18:30:08.524Z,173.85075
2022-12-31T18:35:09.617Z,172.99628
2022-12-31T18:40:10.553Z,172.14815
2022-12-31T18:45:11.544Z,174.71161
2022-12-31T18:50:12.452Z,174.71161
2022-12-31T18:55:13.411Z,174.71161
2022-12-31T19:00:14.494Z,175.57895
2022-12-31T19:05:15.433Z,176.45283
2022-12-31T19:10:16.294Z,172.99628
2022-12-31T19:15:17.300Z,173.85075
2022-12-31T19:20:18.188Z,176.45283
2022-12-31T19:25:19.102Z,175.57895
2022-12-31T19:30:20.026Z,175.57895
2022-12-31T19:35:20.952Z,173.85075
2022-12-31T19:40:21.866Z,174.71161
2022-12-31T19:45:23.045Z,175.57895
2022-12-31T19:50:24.272Z,176.45283
2022-12-31T19:55:25.181Z,176.45283
2022-12-31T20:00:26.111Z,178.22053
2022-12-31T20:05:27.095Z,176.45283
2022-12-31T20:10:28.020Z,173.85075
2022-12-31T20:15:28.941Z,174.71161
2022-12-31T20:20:29.894Z,175.57895
2022-12-31T20:25:30.804Z,173.85075
2022-12-31T20:30:31.765Z,174.71161
2022-12-31T20:35:32.693Z,171.30627
2022-12-31T20:40:33.610Z,174.71161
2022-12-31T20:45:34.558Z,170.47059
2022-12-31T20:50:35.493Z,170.47059
2022-12-31T20:55:36.451Z,172.14815
2022-12-31T21:00:37.482Z,173.85075
2022-12-31T21:05:38.598Z,172.99628
2022-12-31T21:10:39.610Z,176.45283
2022-12-31T21:15:40.715Z,174.71161
2022-12-31T21:20:41.703Z,174.71161
2022-12-31T21:25:42.694Z,175.57895
2022-12-31T21:30:43.665Z,176.45283
2022-12-31T21:35:48.723Z,178.22053
2022-12-31T21:40:54.238Z,175.57895
2022-12-31T21:45:55.238Z,178.22053
2022-12-31T21:50:56.156Z,177.33333
2022-12-31T21:55:57.212Z,176.45283
2022-12-31T22:00:58.320Z,175.57895
2022-12-31T22:05:59.421Z,178.22053
2022-12-31T22:11:00.369Z,175.57895
2022-12-31T22:16:05.317Z,175.57895
2022-12-31T22:21:12.301Z,177.33333
2022-12-31T22:26:18.730Z,177.33333
2022-12-31T22:31:19.771Z,176.45283
2022-12-31T22:36:20.777Z,175.57895
2022-12-31T22:41:21.689Z,176.45283
2022-12-31T22:46:22.878Z,175.57895
2022-12-31T22:51:24.105Z,176.45283
2022-12-31T22:56:25.107Z,179.1145
2022-12-31T23:01:26.097Z,178.22053
2022-12-31T23:06:27.054Z,179.1145
2022-12-31T23:11:27.976Z,168.81752
2022-12-31T23:16:29.121Z,166.38267
2022-12-31T23:21:30.152Z,165.58273
2022-12-31T23:26:31.083Z,165.58273
2022-12-31T23:31:32.087Z,164.78853
2022-12-31T23:36:33.322Z,164.78853
2022-12-31T23:41:34.233Z,164.78853
2022-12-31T23:46:35.175Z,168.0
2022-12-31T23:51:36.545Z,163.21708
2022-12-31T23:56:37.533Z,161.66784
